createdAt,value
2018-11-07T00:01:59.923Z,11.93
2018-11-07T00:04:28.344Z,12.10
2018-11-07T00:06:56.706Z,12.93
2018-11-07T00:09:25.118Z,13.90
2018-11-07T00:11:53.566Z,15.13
2018-11-07T00:14:21.975Z,14.17
2018-11-07T00:16:50.357Z,12.00
2018-11-07T00:19:18.791Z,13.53
2018-11-07T00:21:47.235Z,16.10
2018-11-07T00:24:15.674Z,14.70
2018-11-07T00:26:44.100Z,13.17
2018-11-07T00:29:12.537Z,16.50
2018-11-07T00:31:40.970Z,13.90
2018-11-07T00:34:09.410Z,20.43
2018-11-07T00:36:37.814Z,16.20
2018-11-07T00:39:07.694Z,12.90
2018-11-07T00:41:36.170Z,21.43
2018-11-07T00:44:04.795Z,11.87
2018-11-07T00:46:33.257Z,17.50
2018-11-07T00:49:01.903Z,14.17
2018-11-07T00:51:30.703Z,15.93
2018-11-07T00:53:59.155Z,13.87
2018-11-07T00:56:27.666Z,17.60
2018-11-07T00:58:56.054Z,18.00
2018-11-07T01:01:24.474Z,16.20
2018-11-07T01:03:52.903Z,22.27
2018-11-07T01:06:21.435Z,21.83
2018-11-07T01:08:50.574Z,15.30
2018-11-07T01:11:19.096Z,20.87
2018-11-07T01:13:47.635Z,13.23
2018-11-07T01:16:16.085Z,14.70
2018-11-07T01:18:44.535Z,14.23
2018-11-07T01:21:12.959Z,10.90
2018-11-07T01:23:41.383Z,17.83
2018-11-07T01:26:09.775Z,13.70
2018-11-07T01:28:38.210Z,13.70
2018-11-07T01:31:06.778Z,13.20
2018-11-07T01:33:35.178Z,11.83
2018-11-07T01:36:03.635Z,10.33
2018-11-07T01:38:32.094Z,22.57
2018-11-07T01:41:00.535Z,16.43
2018-11-07T01:43:28.980Z,12.87
2018-11-07T01:45:57.461Z,10.27
2018-11-07T01:48:25.891Z,10.03
2018-11-07T01:50:54.297Z,8.00
2018-11-07T01:53:22.718Z,8.33
2018-11-07T01:55:51.121Z,5.60
2018-11-07T01:58:19.560Z,6.20
2018-11-07T02:00:48.011Z,5.50
2018-11-07T02:03:16.439Z,5.90
2018-11-07T02:05:44.819Z,4.97
2018-11-07T02:08:13.203Z,5.80
2018-11-07T02:10:41.646Z,5.17
2018-11-07T02:13:10.103Z,3.57
2018-11-07T02:15:38.526Z,4.17
2018-11-07T02:18:07.339Z,5.27
2018-11-07T02:20:35.715Z,3.77
2018-11-07T02:23:04.098Z,4.63
2018-11-07T02:25:32.616Z,4.30
2018-11-07T02:28:01.116Z,3.20
2018-11-07T02:30:29.528Z,3.70
2018-11-07T02:32:57.893Z,4.77
2018-11-07T02:35:26.315Z,2.87
2018-11-07T02:37:54.691Z,4.57
2018-11-07T02:40:23.031Z,3.50
2018-11-07T02:42:51.398Z,3.27
2018-11-07T02:45:19.815Z,3.37
2018-11-07T02:47:48.180Z,5.93
2018-11-07T02:50:16.551Z,2.80
2018-11-07T02:52:44.948Z,3.10
2018-11-07T02:55:13.355Z,3.50
2018-11-07T02:57:41.792Z,2.23
2018-11-07T03:00:12.023Z,2.20
2018-11-07T03:02:40.593Z,4.00
2018-11-07T03:05:09.199Z,2.80
2018-11-07T03:07:38.403Z,2.37
2018-11-07T03:10:08.414Z,3.20
2018-11-07T03:12:36.872Z,1.83
2018-11-07T03:15:05.602Z,2.40
2018-11-07T03:17:34.003Z,4.83
2018-11-07T03:20:02.408Z,2.10
2018-11-07T03:22:30.784Z,2.63
2018-11-07T03:24:59.201Z,4.00
2018-11-07T03:27:27.595Z,4.00
2018-11-07T03:29:55.946Z,2.50
2018-11-07T03:32:24.428Z,5.00
2018-11-07T03:34:52.830Z,2.30
2018-11-07T03:37:21.241Z,2.83
2018-11-07T03:39:49.777Z,3.30
2018-11-07T03:42:18.099Z,3.67
2018-11-07T03:44:46.520Z,4.27
2018-11-07T03:47:14.943Z,3.03
2018-11-07T03:49:43.326Z,2.93
2018-11-07T03:52:11.727Z,2.20
2018-11-07T03:54:40.151Z,3.13
2018-11-07T03:57:08.551Z,5.67
2018-11-07T03:59:36.968Z,5.00
2018-11-07T04:02:05.522Z,1.90
2018-11-07T04:04:34.005Z,2.80
2018-11-07T04:07:02.403Z,2.70
2018-11-07T04:09:30.854Z,2.03
2018-11-07T04:11:59.234Z,3.30
2018-11-07T04:14:27.640Z,3.03
2018-11-07T04:16:56.069Z,1.97
2018-11-07T04:19:24.503Z,3.30
2018-11-07T04:21:52.975Z,2.27
2018-11-07T04:24:21.424Z,2.70
2018-11-07T04:26:49.863Z,4.37
2018-11-07T04:29:18.298Z,4.93
2018-11-07T04:31:46.771Z,5.90
2018-11-07T04:34:15.260Z,7.67
2018-11-07T04:36:43.679Z,5.97
2018-11-07T04:39:12.167Z,4.17
2018-11-07T04:41:40.707Z,4.00
2018-11-07T04:44:09.222Z,3.40
2018-11-07T04:46:37.656Z,3.90
2018-11-07T04:49:06.063Z,5.67
2018-11-07T04:51:34.501Z,3.37
2018-11-07T04:54:02.924Z,3.47
2018-11-07T04:56:31.344Z,3.50
2018-11-07T04:58:59.671Z,4.17
2018-11-07T05:01:28.125Z,3.80
2018-11-07T05:03:56.683Z,6.43
2018-11-07T05:06:25.089Z,5.13
2018-11-07T05:08:53.600Z,4.50
2018-11-07T05:11:22.059Z,4.50
2018-11-07T05:13:50.515Z,5.90
2018-11-07T05:16:19.241Z,5.17
2018-11-07T05:18:47.695Z,4.37
2018-11-07T05:21:16.226Z,2.97
2018-11-07T05:23:44.728Z,4.50
2018-11-07T05:26:13.230Z,3.97
2018-11-07T05:28:41.595Z,5.63
2018-11-07T05:31:10.020Z,3.50
2018-11-07T05:33:38.448Z,6.70
2018-11-07T05:36:07.252Z,4.83
2018-11-07T05:38:35.708Z,3.27
2018-11-07T05:41:04.143Z,4.33
2018-11-07T05:43:32.530Z,4.27
2018-11-07T05:46:01.194Z,3.33
2018-11-07T05:48:29.589Z,3.40
2018-11-07T05:50:57.943Z,5.90
2018-11-07T05:53:26.361Z,3.60
2018-11-07T05:55:54.855Z,4.13
2018-11-07T05:58:23.617Z,3.40
2018-11-07T06:00:52.004Z,2.70
2018-11-07T06:03:20.458Z,3.17
2018-11-07T06:05:48.862Z,4.10
2018-11-07T06:08:17.310Z,4.90
2018-11-07T06:10:45.747Z,5.40
2018-11-07T06:13:14.171Z,2.57
2018-11-07T06:15:42.570Z,6.27
2018-11-07T06:18:10.972Z,4.03
2018-11-07T06:20:39.425Z,2.00
2018-11-07T06:23:07.819Z,2.43
2018-11-07T06:25:36.343Z,3.60
2018-11-07T06:28:04.743Z,3.00
2018-11-07T06:30:33.087Z,3.80
2018-11-07T06:33:01.588Z,3.63
2018-11-07T06:35:29.980Z,3.20
2018-11-07T06:37:58.454Z,4.33
2018-11-07T06:40:26.867Z,4.83
2018-11-07T06:42:55.353Z,4.80
2018-11-07T06:45:23.804Z,4.13
2018-11-07T06:47:52.212Z,4.13
2018-11-07T06:50:20.740Z,2.60
2018-11-07T06:52:49.169Z,8.00
2018-11-07T06:55:17.649Z,2.63
2018-11-07T06:57:46.083Z,4.50
2018-11-07T07:00:16.175Z,7.10
2018-11-07T07:02:45.550Z,3.00
2018-11-07T07:05:14.168Z,4.83
2018-11-07T07:07:42.688Z,11.03
2018-11-07T07:10:14.795Z,6.83
2018-11-07T07:12:43.243Z,9.37
2018-11-07T07:15:13.603Z,6.47
2018-11-07T07:17:42.187Z,6.70
2018-11-07T07:20:15.398Z,4.30
2018-11-07T07:22:44.476Z,6.30
2018-11-07T07:25:13.436Z,8.03
2018-11-07T07:27:42.738Z,4.57
2018-11-07T07:30:13.122Z,5.93
2018-11-07T07:32:42.459Z,8.70
2018-11-07T07:35:11.033Z,8.60
2018-11-07T07:37:39.471Z,7.27
2018-11-07T07:40:10.269Z,7.73
2018-11-07T07:42:39.672Z,6.20
2018-11-07T07:45:11.491Z,8.27
2018-11-07T07:47:40.335Z,7.83
2018-11-07T07:50:10.363Z,10.47
2018-11-07T07:52:39.002Z,7.43
2018-11-07T07:55:07.959Z,8.57
2018-11-07T07:57:36.951Z,7.27
2018-11-07T08:00:10.062Z,9.40
2018-11-07T08:02:38.667Z,4.53
2018-11-07T08:05:07.235Z,10.00
2018-11-07T08:07:35.688Z,5.93
2018-11-07T08:10:05.122Z,6.33
2018-11-07T08:12:33.572Z,6.20
2018-11-07T08:15:01.993Z,4.73
2018-11-07T08:17:30.411Z,6.93
2018-11-07T08:19:58.843Z,6.50
2018-11-07T08:22:27.247Z,8.00
2018-11-07T08:24:55.771Z,3.60
2018-11-07T08:27:24.183Z,6.50
2018-11-07T08:29:52.771Z,3.30
2018-11-07T08:32:21.167Z,6.63
2018-11-07T08:34:49.641Z,2.60
2018-11-07T08:37:18.276Z,3.33
2018-11-07T08:39:46.691Z,4.33
2018-11-07T08:42:15.220Z,3.23
2018-11-07T08:44:43.577Z,3.37
2018-11-07T08:47:11.944Z,5.87
2018-11-07T08:49:40.317Z,2.37
2018-11-07T08:52:08.773Z,2.20
2018-11-07T08:54:37.195Z,3.27
2018-11-07T08:57:05.829Z,1.67
2018-11-07T08:59:34.175Z,2.03
2018-11-07T09:02:02.565Z,1.80
2018-11-07T09:04:30.915Z,2.70
2018-11-07T09:06:59.351Z,2.30
2018-11-07T09:09:27.740Z,3.03
2018-11-07T09:11:56.176Z,1.47
2018-11-07T09:14:24.531Z,4.20
2018-11-07T09:16:52.955Z,5.70
2018-11-07T09:19:21.373Z,2.13
2018-11-07T09:21:49.794Z,2.83
2018-11-07T09:24:18.293Z,1.67
2018-11-07T09:26:46.624Z,1.93
2018-11-07T09:29:15.153Z,2.60
2018-11-07T09:31:43.594Z,1.60
2018-11-07T09:34:12.341Z,3.73
2018-11-07T09:36:40.771Z,1.70
2018-11-07T09:39:10.308Z,2.00
2018-11-07T09:41:38.803Z,3.27
2018-11-07T09:44:07.550Z,2.20
2018-11-07T09:46:36.119Z,3.37
2018-11-07T09:49:04.628Z,1.70
2018-11-07T09:51:33.039Z,1.70
2018-11-07T09:54:02.327Z,3.03
2018-11-07T09:56:30.749Z,1.57
2018-11-07T09:58:59.327Z,3.03
2018-11-07T10:01:27.768Z,4.27
2018-11-07T10:03:56.192Z,1.73
2018-11-07T10:06:24.658Z,1.83
2018-11-07T10:08:53.019Z,1.53
2018-11-07T10:11:21.483Z,1.30
2018-11-07T10:13:49.860Z,2.47
2018-11-07T10:16:18.251Z,2.37
2018-11-07T10:18:46.635Z,3.03
2018-11-07T10:21:15.092Z,1.90
2018-11-07T10:23:43.456Z,2.50
2018-11-07T10:26:11.787Z,1.60
2018-11-07T10:28:40.332Z,4.70
2018-11-07T10:31:08.547Z,5.40
2018-11-07T10:33:36.954Z,2.40
2018-11-07T10:36:05.352Z,1.83
2018-11-07T10:38:33.839Z,3.23
2018-11-07T10:41:02.263Z,1.87
2018-11-07T10:43:30.695Z,1.83
2018-11-07T10:45:59.186Z,2.47
2018-11-07T10:48:27.633Z,1.70
2018-11-07T10:50:56.019Z,3.23
2018-11-07T10:53:24.535Z,1.90
2018-11-07T10:55:52.949Z,4.17
2018-11-07T10:58:21.347Z,1.90
2018-11-07T11:00:55.842Z,1.67
2018-11-07T11:03:28.568Z,1.33
2018-11-07T11:05:57.035Z,1.67
2018-11-07T11:08:25.470Z,1.83
2018-11-07T11:10:53.939Z,3.10
2018-11-07T11:13:22.579Z,3.97
2018-11-07T11:15:51.011Z,1.90
2018-11-07T11:18:19.331Z,1.67
2018-11-07T11:20:47.639Z,1.53
2018-11-07T11:23:16.055Z,16.83
2018-11-07T11:25:44.491Z,2.60
2018-11-07T11:28:13.015Z,2.93
2018-11-07T11:30:41.416Z,2.90
2018-11-07T11:33:09.797Z,1.57
2018-11-07T11:35:38.213Z,4.47
2018-11-07T11:38:06.759Z,1.40
2018-11-07T11:40:35.135Z,3.27
2018-11-07T11:43:03.403Z,2.93
2018-11-07T11:45:31.923Z,5.93
2018-11-07T11:48:00.273Z,1.57
2018-11-07T11:50:28.714Z,3.50
2018-11-07T11:52:57.104Z,2.20
2018-11-07T11:55:25.507Z,2.67
2018-11-07T11:57:53.987Z,14.67
2018-11-07T12:00:22.571Z,1.10
2018-11-07T12:02:51.000Z,2.67
2018-11-07T12:05:20.039Z,1.63
2018-11-07T12:07:48.490Z,2.37
2018-11-07T12:10:22.189Z,1.53
2018-11-07T12:12:51.834Z,1.43
2018-11-07T12:15:21.303Z,7.43
2018-11-07T12:17:49.823Z,1.33
2018-11-07T12:20:18.435Z,3.33
2018-11-07T12:22:46.964Z,5.30
2018-11-07T12:25:16.139Z,5.33
2018-11-07T12:27:44.779Z,1.63
2018-11-07T12:30:15.228Z,1.70
2018-11-07T12:32:45.731Z,1.77
2018-11-07T12:35:14.675Z,3.10
2018-11-07T12:37:43.307Z,7.13
2018-11-07T12:40:12.272Z,4.93
2018-11-07T12:42:40.807Z,1.90
2018-11-07T12:45:10.271Z,2.70
2018-11-07T12:47:39.061Z,1.50
2018-11-07T12:50:09.486Z,4.00
2018-11-07T12:52:37.879Z,2.50
2018-11-07T12:55:06.979Z,3.07
2018-11-07T12:57:36.025Z,2.63
2018-11-07T13:00:04.652Z,7.47
2018-11-07T13:02:33.164Z,5.33
2018-11-07T13:05:01.649Z,1.60
2018-11-07T13:07:30.911Z,1.70
2018-11-07T13:09:59.372Z,1.73
2018-11-07T13:12:27.844Z,3.90
2018-11-07T13:14:56.273Z,1.50
2018-11-07T13:17:24.718Z,1.50
2018-11-07T13:19:53.143Z,1.80
2018-11-07T13:22:21.767Z,2.90
2018-11-07T13:24:50.234Z,1.33
2018-11-07T13:27:18.656Z,2.70
2018-11-07T13:29:47.275Z,2.50
2018-11-07T13:32:15.680Z,2.00
2018-11-07T13:34:44.132Z,2.67
2018-11-07T13:37:12.811Z,1.50
2018-11-07T13:39:40.949Z,2.13
2018-11-07T13:42:09.448Z,1.73
2018-11-07T13:44:37.899Z,1.83
2018-11-07T13:47:06.452Z,1.53
2018-11-07T13:49:34.899Z,3.90
2018-11-07T13:52:03.452Z,2.30
2018-11-07T13:54:31.891Z,2.20
2018-11-07T13:57:00.341Z,2.23
2018-11-07T13:59:28.809Z,2.20
2018-11-07T14:01:57.243Z,3.10
2018-11-07T14:04:25.683Z,1.97
2018-11-07T14:06:54.267Z,6.80
2018-11-07T14:09:22.710Z,1.40
2018-11-07T14:11:51.090Z,1.90
2018-11-07T14:14:19.534Z,2.60
2018-11-07T14:16:48.024Z,2.83
2018-11-07T14:19:16.534Z,2.90
2018-11-07T14:21:44.990Z,3.23
2018-11-07T14:24:13.455Z,3.33
2018-11-07T14:26:41.976Z,2.40
2018-11-07T14:29:10.429Z,2.30
2018-11-07T14:31:38.896Z,2.47
2018-11-07T14:34:07.387Z,2.27
2018-11-07T14:36:35.760Z,3.13
2018-11-07T14:39:05.491Z,1.67
2018-11-07T14:41:33.850Z,5.00
2018-11-07T14:44:02.356Z,5.57
2018-11-07T14:46:30.814Z,6.03
2018-11-07T14:48:59.230Z,6.53
2018-11-07T14:51:27.599Z,11.27
2018-11-07T14:53:56.057Z,10.20
2018-11-07T14:56:24.487Z,10.10
2018-11-07T14:58:52.998Z,12.13
2018-11-07T15:01:21.395Z,9.70
2018-11-07T15:03:49.849Z,17.03
2018-11-07T15:06:18.255Z,11.07
2018-11-07T15:08:46.726Z,10.20
2018-11-07T15:11:15.167Z,10.73
2018-11-07T15:13:43.582Z,13.37
2018-11-07T15:16:12.011Z,14.33
2018-11-07T15:18:40.432Z,9.50
2018-11-07T15:21:08.855Z,9.40
2018-11-07T15:23:37.351Z,8.87
2018-11-07T15:26:05.983Z,12.37
2018-11-07T15:28:34.419Z,7.43
2018-11-07T15:31:02.967Z,15.33
2018-11-07T15:33:31.451Z,9.67
2018-11-07T15:36:00.011Z,8.83
2018-11-07T15:38:28.391Z,13.07
2018-11-07T15:40:56.843Z,11.63
2018-11-07T15:43:25.291Z,11.77
2018-11-07T15:45:53.690Z,11.67
2018-11-07T15:48:22.096Z,10.37
2018-11-07T15:50:55.963Z,8.20
2018-11-07T15:53:24.418Z,8.00
2018-11-07T15:55:52.829Z,9.30
2018-11-07T15:58:21.266Z,8.63
2018-11-07T16:00:49.766Z,9.57
2018-11-07T16:03:24.754Z,13.47
2018-11-07T16:05:53.365Z,8.03
2018-11-07T16:08:21.899Z,8.63
2018-11-07T16:10:50.366Z,8.40
2018-11-07T16:13:18.887Z,8.03
2018-11-07T16:15:47.356Z,6.60
2018-11-07T16:18:15.822Z,9.40
2018-11-07T16:20:44.369Z,6.47
2018-11-07T16:23:12.731Z,9.27
2018-11-07T16:25:41.149Z,6.50
2018-11-07T16:28:09.595Z,5.50
2018-11-07T16:30:38.072Z,10.90
2018-11-07T16:33:06.491Z,9.73
2018-11-07T16:35:34.924Z,8.43
2018-11-07T16:38:03.483Z,6.27
2018-11-07T16:40:31.895Z,8.40
2018-11-07T16:43:00.226Z,6.10
2018-11-07T16:45:28.644Z,8.50
2018-11-07T16:47:57.111Z,6.70
2018-11-07T16:50:25.540Z,8.70
2018-11-07T16:52:53.988Z,6.60
2018-11-07T16:55:22.434Z,5.77
2018-11-07T16:57:50.991Z,6.30
2018-11-07T17:00:20.607Z,11.30
2018-11-07T17:02:49.696Z,5.90
2018-11-07T17:05:18.571Z,10.57
2018-11-07T17:07:47.273Z,7.50
2018-11-07T17:10:16.027Z,7.20
2018-11-07T17:12:44.592Z,6.90
2018-11-07T17:15:13.097Z,7.27
2018-11-07T17:17:41.507Z,4.77
2018-11-07T17:20:11.419Z,4.90
2018-11-07T17:22:39.910Z,10.50
2018-11-07T17:25:10.025Z,5.80
2018-11-07T17:27:38.928Z,6.00
2018-11-07T17:30:08.314Z,4.60
2018-11-07T17:32:36.835Z,3.33
2018-11-07T17:35:06.355Z,2.70
2018-11-07T17:37:34.780Z,3.77
2018-11-07T17:40:04.006Z,3.47
2018-11-07T17:42:32.416Z,2.40
2018-11-07T17:45:00.814Z,3.60
2018-11-07T17:47:29.198Z,5.10
2018-11-07T17:49:57.643Z,2.67
2018-11-07T17:52:26.059Z,5.20
2018-11-07T17:54:54.502Z,2.40
2018-11-07T17:57:22.905Z,3.10
2018-11-07T17:59:51.277Z,7.00
2018-11-07T18:02:19.702Z,4.50
2018-11-07T18:04:48.138Z,2.80
2018-11-07T18:07:16.759Z,2.23
2018-11-07T18:09:45.225Z,3.20
2018-11-07T18:12:13.725Z,3.60
2018-11-07T18:14:42.103Z,5.30
2018-11-07T18:17:11.281Z,3.53
2018-11-07T18:19:40.362Z,4.77
2018-11-07T18:22:09.130Z,2.87
2018-11-07T18:24:37.643Z,3.30
2018-11-07T18:27:06.375Z,3.30
2018-11-07T18:29:34.922Z,3.87
2018-11-07T18:32:04.435Z,6.33
2018-11-07T18:34:35.996Z,2.83
2018-11-07T18:37:05.131Z,3.00
2018-11-07T18:39:33.843Z,4.33
2018-11-07T18:42:02.286Z,5.10
2018-11-07T18:44:30.756Z,4.07
2018-11-07T18:46:59.224Z,4.90
2018-11-07T18:49:27.635Z,5.30
2018-11-07T18:51:56.073Z,3.10
2018-11-07T18:54:24.515Z,4.70
2018-11-07T18:56:53.072Z,4.03
2018-11-07T18:59:21.386Z,3.47
2018-11-07T19:01:49.824Z,4.77
2018-11-07T19:04:18.370Z,3.23
2018-11-07T19:06:46.905Z,4.53
2018-11-07T19:09:15.210Z,3.53
2018-11-07T19:11:43.642Z,3.23
2018-11-07T19:14:12.067Z,4.20
2018-11-07T19:16:40.525Z,3.00
2018-11-07T19:19:08.982Z,4.10
2018-11-07T19:21:37.392Z,4.30
2018-11-07T19:24:05.859Z,7.60
2018-11-07T19:26:34.319Z,2.83
2018-11-07T19:29:02.726Z,3.83
2018-11-07T19:31:31.173Z,3.70
2018-11-07T19:33:59.599Z,2.40
2018-11-07T19:36:28.049Z,8.30
2018-11-07T19:38:56.523Z,3.23
2018-11-07T19:41:24.933Z,5.43
2018-11-07T19:43:53.345Z,3.77
2018-11-07T19:46:21.781Z,3.53
2018-11-07T19:48:50.259Z,3.77
2018-11-07T19:51:18.627Z,3.17
2018-11-07T19:53:47.106Z,6.73
2018-11-07T19:56:15.448Z,4.47
2018-11-07T19:58:43.882Z,2.30
2018-11-07T20:01:12.311Z,10.10
2018-11-07T20:03:40.756Z,2.50
2018-11-07T20:06:09.162Z,5.00
2018-11-07T20:08:37.621Z,1.80
2018-11-07T20:11:06.105Z,2.00
2018-11-07T20:13:34.532Z,1.77
2018-11-07T20:16:02.983Z,2.50
2018-11-07T20:18:31.415Z,2.50
2018-11-07T20:20:59.875Z,2.53
2018-11-07T20:23:28.350Z,3.60
2018-11-07T20:25:56.755Z,2.17
2018-11-07T20:28:25.178Z,1.57
2018-11-07T20:30:53.687Z,6.40
2018-11-07T20:33:22.044Z,1.93
2018-11-07T20:35:50.598Z,4.57
2018-11-07T20:38:18.884Z,1.77
2018-11-07T20:40:47.297Z,2.13
2018-11-07T20:43:15.738Z,2.57
2018-11-07T20:45:44.159Z,1.67
2018-11-07T20:48:12.535Z,2.23
2018-11-07T20:50:40.903Z,5.50
2018-11-07T20:53:09.351Z,3.70
2018-11-07T20:55:37.850Z,7.37
2018-11-07T20:58:06.450Z,1.63
2018-11-07T21:00:34.782Z,1.73
2018-11-07T21:03:03.135Z,2.27
2018-11-07T21:05:31.480Z,2.67
2018-11-07T21:07:59.844Z,2.10
2018-11-07T21:10:28.146Z,1.97
2018-11-07T21:12:56.480Z,1.70
2018-11-07T21:15:24.890Z,2.63
2018-11-07T21:17:53.374Z,2.17
2018-11-07T21:20:21.808Z,3.00
2018-11-07T21:22:51.644Z,3.93
2018-11-07T21:25:20.095Z,2.53
2018-11-07T21:27:48.493Z,2.40
2018-11-07T21:30:16.883Z,2.97
2018-11-07T21:32:45.451Z,2.07
2018-11-07T21:35:13.977Z,2.90
2018-11-07T21:37:42.498Z,2.40
2018-11-07T21:40:12.762Z,2.13
2018-11-07T21:42:41.221Z,2.37
2018-11-07T21:45:10.822Z,3.27
2018-11-07T21:47:39.636Z,5.40
2018-11-07T21:50:09.236Z,3.30
2018-11-07T21:52:37.898Z,2.17
2018-11-07T21:55:06.695Z,4.40
2018-11-07T21:57:35.311Z,2.70
2018-11-07T22:00:03.938Z,3.00
2018-11-07T22:02:32.381Z,3.03
2018-11-07T22:05:00.809Z,3.17
2018-11-07T22:07:29.227Z,4.27
2018-11-07T22:09:57.643Z,3.83
2018-11-07T22:12:26.090Z,5.30
2018-11-07T22:14:54.558Z,3.90
2018-11-07T22:17:23.000Z,6.47
2018-11-07T22:19:51.526Z,3.30
2018-11-07T22:22:20.091Z,3.97
2018-11-07T22:24:48.515Z,3.70
2018-11-07T22:27:17.099Z,3.80
2018-11-07T22:29:45.658Z,5.90
2018-11-07T22:32:14.157Z,6.57
2018-11-07T22:34:42.695Z,7.17
2018-11-07T22:37:11.143Z,4.63
2018-11-07T22:39:39.559Z,3.77
2018-11-07T22:42:08.003Z,5.50
2018-11-07T22:44:36.458Z,4.33
2018-11-07T22:47:04.903Z,4.40
2018-11-07T22:49:33.347Z,4.47
2018-11-07T22:52:01.816Z,4.07
2018-11-07T22:54:30.247Z,3.20
2018-11-07T22:56:58.651Z,3.63
2018-11-07T22:59:27.103Z,5.13
2018-11-07T23:01:55.548Z,3.33
2018-11-07T23:04:23.995Z,5.03
2018-11-07T23:06:52.431Z,11.40
2018-11-07T23:09:20.847Z,4.83
2018-11-07T23:11:49.478Z,5.47
2018-11-07T23:14:17.924Z,5.90
2018-11-07T23:16:46.454Z,3.93
2018-11-07T23:19:14.932Z,5.30
2018-11-07T23:21:43.355Z,3.80
2018-11-07T23:24:29.456Z,3.30
2018-11-07T23:26:57.924Z,6.43
2018-11-07T23:29:26.354Z,5.17
2018-11-07T23:31:54.838Z,3.83
2018-11-07T23:34:23.263Z,3.47
2018-11-07T23:36:51.696Z,5.07
2018-11-07T23:39:20.096Z,3.20
2018-11-07T23:41:48.497Z,3.90
2018-11-07T23:44:16.855Z,3.30
2018-11-07T23:46:45.312Z,9.73
2018-11-07T23:49:13.767Z,3.77
2018-11-07T23:51:47.467Z,3.30
2018-11-07T23:54:16.335Z,4.33
2018-11-07T23:56:44.735Z,3.60
2018-11-07T23:59:13.190Z,3.90
